Terminal Aerodrome Forecast
Issued by NWS

Home | Current Version | Previous Version | Text Only | Print | Product List | Glossary On
Versions: 1 2 3 4 5 6 7 8 9 10 11 12 13 14 15 16 17 18 19 20 21 22
000
FTUS42 KFFC 281358 AAA
TAFRYY
TAF AMD
KRYY 281358Z 2814/0112 11012G18KT P6SM BKN100
     FM281700 08012G18KT P6SM SCT040 BKN090
     FM010300 08006KT P6SM SCT015 BKN035
     FM010600 08005KT P6SM -RA BKN015
     FM011000 08003KT 4SM -RA OVC005=

USA.gov is the U.S. government's official web portal to all federal, state and local government web resources and services.